Time;durP1;ratioP1;P1;durP2;ratioP2;P2;SDS_P1;SDS_P2;PMS_P1;PMS_P2;Temp;Humidity;BMP_temperature;BMP_pressure;BME280_temperature;BME280_humidity;BME280_pressure;Samples;Min_cycle;Max_cycle;Signal;HPM_P1;HPM_P2
2023/10/21 00:01:58;;;;;;;13.45;6.82;;;;;;;;;;4955724;28;20059;-64
2023/10/21 00:04:23;;;;;;;9.88;5.32;;;;;;;;;;4955606;28;20053;-65
2023/10/21 00:06:49;;;;;;;12.20;7.72;;;;;;;;;;4954449;28;20027;-63
2023/10/21 00:09:14;;;;;;;13.48;7.22;;;;;;;;;;4955741;28;20019;-64
2023/10/21 00:11:40;;;;;;;15.05;7.95;;;;;;;;;;4955486;28;20039;-63
2023/10/21 00:14:06;;;;;;;10.88;6.15;;;;;;;;;;4955437;28;20027;-63
2023/10/21 00:16:32;;;;;;;18.17;8.13;;;;;;;;;;4955507;28;20042;-65
2023/10/21 00:18:58;;;;;;;17.27;10.55;;;;;;;;;;4955413;28;20381;-65
2023/10/21 00:21:23;;;;;;;9.18;6.20;;;;;;;;;;4955555;28;20067;-64
2023/10/21 00:23:48;;;;;;;11.90;7.10;;;;;;;;;;4957412;28;20031;-64
2023/10/21 00:26:16;;;;;;;10.95;6.47;;;;;;;;;;4974806;28;20081;-64
2023/10/21 00:28:41;;;;;;;18.63;8.25;;;;;;;;;;4974297;28;20030;-64
2023/10/21 00:31:07;;;;;;;14.25;8.57;;;;;;;;;;4974559;28;20042;-65
2023/10/21 00:33:32;;;;;;;14.52;7.30;;;;;;;;;;4974160;28;20077;-65
2023/10/21 00:35:58;;;;;;;17.73;7.93;;;;;;;;;;4974465;28;20437;-65
2023/10/21 00:38:24;;;;;;;12.10;6.95;;;;;;;;;;4974030;28;20436;-64
2023/10/21 00:40:55;;;;;;;8.25;4.50;;;;;;;;;;4974390;28;20035;-64
2023/10/21 00:43:39;;;;;;;13.30;6.90;;;;;;;;;;4974232;28;20051;-65
2023/10/21 00:46:16;;;;;;;11.40;6.13;;;;;;;;;;4974429;28;20029;-65
2023/10/21 00:48:41;;;;;;;14.68;7.07;;;;;;;;;;4974376;28;20031;-64
2023/10/21 00:51:09;;;;;;;14.20;5.95;;;;;;;;;;4974365;28;20081;-63
2023/10/21 00:53:35;;;;;;;6.00;3.60;;;;;;;;;;4974174;28;20499;-64
2023/10/21 00:56:00;;;;;;;12.45;7.55;;;;;;;;;;4974260;28;20031;-64
2023/10/21 00:58:27;;;;;;;11.52;5.45;;;;;;;;;;4974091;28;20054;-64
2023/10/21 01:00:56;;;;;;;9.75;5.50;;;;;;;;;;4974269;28;20027;-64
2023/10/21 01:03:24;;;;;;;10.32;5.50;;;;;;;;;;4974117;28;20479;-65
2023/10/21 01:05:50;;;;;;;12.27;7.07;;;;;;;;;;4974201;28;20027;-65
2023/10/21 01:08:15;;;;;;;9.55;5.68;;;;;;;;;;4974242;28;20023;-64
2023/10/21 01:10:41;;;;;;;11.68;6.13;;;;;;;;;;4974194;28;20497;-63
2023/10/21 01:13:06;;;;;;;8.48;4.45;;;;;;;;;;4973725;28;20046;-64
2023/10/21 01:15:32;;;;;;;10.25;5.45;;;;;;;;;;4973940;28;20031;-65
2023/10/21 01:17:57;;;;;;;9.68;4.20;;;;;;;;;;4973878;28;20381;-64
2023/10/21 01:20:22;;;;;;;9.75;5.10;;;;;;;;;;4974077;28;20380;-64
2023/10/21 01:22:48;;;;;;;4.18;3.20;;;;;;;;;;4973850;28;20022;-64
2023/10/21 01:25:14;;;;;;;6.18;3.92;;;;;;;;;;4960085;28;20437;-63
2023/10/21 01:27:40;;;;;;;8.70;4.30;;;;;;;;;;4954406;28;20031;-64
2023/10/21 01:30:05;;;;;;;10.75;4.97;;;;;;;;;;4967697;28;20035;-64
2023/10/21 01:32:32;;;;;;;7.20;4.40;;;;;;;;;;4973708;28;20047;-64
2023/10/21 01:34:57;;;;;;;6.82;3.78;;;;;;;;;;4955983;28;20063;-65
2023/10/21 01:37:23;;;;;;;9.18;4.88;;;;;;;;;;4954563;28;20489;-64
2023/10/21 01:39:48;;;;;;;9.88;5.05;;;;;;;;;;4954676;28;20066;-63
2023/10/21 01:42:14;;;;;;;5.25;3.33;;;;;;;;;;4954307;28;20114;-63
2023/10/21 01:44:39;;;;;;;8.77;4.88;;;;;;;;;;4956484;28;20031;-63
2023/10/21 01:47:05;;;;;;;7.00;4.57;;;;;;;;;;4973614;28;20078;-64
2023/10/21 01:49:31;;;;;;;8.18;4.75;;;;;;;;;;4975574;28;20027;-65
2023/10/21 01:51:57;;;;;;;8.82;5.15;;;;;;;;;;4977479;28;20029;-64
2023/10/21 01:54:22;;;;;;;8.57;5.57;;;;;;;;;;4977297;28;20107;-63
2023/10/21 01:56:48;;;;;;;7.05;3.95;;;;;;;;;;4977269;28;20061;-64
2023/10/21 01:59:14;;;;;;;7.90;3.95;;;;;;;;;;4977400;28;20022;-64
2023/10/21 02:01:40;;;;;;;6.43;4.28;;;;;;;;;;4977076;28;20025;-64
2023/10/21 02:04:06;;;;;;;10.65;5.47;;;;;;;;;;4977214;28;20030;-63
2023/10/21 02:06:31;;;;;;;10.93;5.40;;;;;;;;;;4977112;28;20035;-66
2023/10/21 02:08:56;;;;;;;8.85;5.00;;;;;;;;;;4977233;28;20081;-64
2023/10/21 02:11:22;;;;;;;10.43;5.03;;;;;;;;;;4976995;28;20034;-64
2023/10/21 02:13:48;;;;;;;6.88;4.20;;;;;;;;;;4975879;28;20429;-64
2023/10/21 02:16:13;;;;;;;7.13;4.22;;;;;;;;;;4977225;28;20074;-65
2023/10/21 02:18:39;;;;;;;6.07;3.50;;;;;;;;;;4976972;28;20078;-65
2023/10/21 02:21:06;;;;;;;7.90;4.47;;;;;;;;;;4977003;28;20027;-65
2023/10/21 02:23:31;;;;;;;5.40;2.92;;;;;;;;;;4976824;28;20392;-64
2023/10/21 02:26:04;;;;;;;8.05;3.75;;;;;;;;;;4976703;28;20023;-63
2023/10/21 02:28:30;;;;;;;7.95;4.68;;;;;;;;;;4976431;28;20436;-64
2023/10/21 02:30:56;;;;;;;7.18;4.93;;;;;;;;;;4957415;29;20031;-64
2023/10/21 02:33:22;;;;;;;7.78;4.55;;;;;;;;;;4957095;28;20097;-64
2023/10/21 02:35:52;;;;;;;7.35;4.60;;;;;;;;;;4957516;28;20031;-64
2023/10/21 02:38:18;;;;;;;7.03;4.70;;;;;;;;;;4957389;28;20043;-64
2023/10/21 02:40:43;;;;;;;8.48;4.50;;;;;;;;;;4957110;28;20040;-64
2023/10/21 02:43:11;;;;;;;7.47;3.83;;;;;;;;;;4957079;29;20031;-65
2023/10/21 02:45:36;;;;;;;9.35;4.47;;;;;;;;;;4967051;28;20384;-65
2023/10/21 02:48:02;;;;;;;7.15;4.32;;;;;;;;;;4976413;28;20019;-64
2023/10/21 02:50:28;;;;;;;9.15;3.80;;;;;;;;;;4976321;28;20034;-64
2023/10/21 02:52:53;;;;;;;6.85;4.20;;;;;;;;;;4976530;28;20042;-63
2023/10/21 02:55:18;;;;;;;7.95;4.65;;;;;;;;;;4976030;28;20029;-64
2023/10/21 02:57:45;;;;;;;7.10;4.40;;;;;;;;;;4976365;28;20086;-64
2023/10/21 03:00:15;;;;;;;6.20;3.85;;;;;;;;;;4974829;28;20078;-65
2023/10/21 03:02:42;;;;;;;7.80;4.72;;;;;;;;;;4976089;28;20370;-65
2023/10/21 03:05:08;;;;;;;7.13;4.60;;;;;;;;;;4975855;28;20042;-64
2023/10/21 03:07:34;;;;;;;8.55;4.45;;;;;;;;;;4975975;28;20030;-64
2023/10/21 03:10:00;;;;;;;6.53;3.80;;;;;;;;;;4976071;28;20377;-65
2023/10/21 03:12:26;;;;;;;9.02;4.57;;;;;;;;;;4976063;28;20045;-65
2023/10/21 03:14:52;;;;;;;9.93;3.92;;;;;;;;;;4975946;28;20030;-64
2023/10/21 03:17:19;;;;;;;11.50;4.90;;;;;;;;;;4975997;28;20065;-65
2023/10/21 03:19:44;;;;;;;5.72;3.55;;;;;;;;;;4975759;28;20038;-63
2023/10/21 03:22:10;;;;;;;9.40;4.68;;;;;;;;;;4975769;28;20031;-63
2023/10/21 03:24:35;;;;;;;8.90;4.70;;;;;;;;;;4975547;28;20045;-64
2023/10/21 03:27:01;;;;;;;7.75;4.82;;;;;;;;;;4975744;28;20027;-64
2023/10/21 03:29:27;;;;;;;9.52;4.50;;;;;;;;;;4967603;28;20015;-65
2023/10/21 03:31:52;;;;;;;9.18;4.57;;;;;;;;;;4956168;29;20038;-63
2023/10/21 03:34:18;;;;;;;8.13;4.78;;;;;;;;;;4968671;28;20037;-63
2023/10/21 03:36:43;;;;;;;8.88;4.88;;;;;;;;;;4975214;28;20026;-63
2023/10/21 03:39:09;;;;;;;8.45;4.20;;;;;;;;;;4975292;28;20027;-64
2023/10/21 03:41:35;;;;;;;6.85;4.38;;;;;;;;;;4975458;28;20023;-64
2023/10/21 03:44:01;;;;;;;7.28;4.90;;;;;;;;;;4975355;28;20054;-64
2023/10/21 03:46:27;;;;;;;7.53;4.78;;;;;;;;;;4975151;28;20380;-64
2023/10/21 03:48:52;;;;;;;7.32;4.53;;;;;;;;;;4975339;28;20106;-64
2023/10/21 03:51:18;;;;;;;9.05;4.05;;;;;;;;;;4975135;28;20476;-65
2023/10/21 03:53:43;;;;;;;6.32;3.92;;;;;;;;;;4975235;28;20436;-64
2023/10/21 03:56:09;;;;;;;6.97;4.20;;;;;;;;;;4975306;28;20121;-64
2023/10/21 03:58:36;;;;;;;8.98;4.25;;;;;;;;;;4975104;28;20031;-64
2023/10/21 04:01:01;;;;;;;6.97;4.45;;;;;;;;;;4975035;28;20029;-64
2023/10/21 04:03:27;;;;;;;7.63;4.32;;;;;;;;;;4974676;28;20113;-64
2023/10/21 04:05:53;;;;;;;6.50;3.83;;;;;;;;;;4974894;28;20039;-64
2023/10/21 04:08:20;;;;;;;7.90;4.45;;;;;;;;;;4974988;28;20028;-65
2023/10/21 04:10:45;;;;;;;8.13;4.80;;;;;;;;;;4975063;28;20019;-64
2023/10/21 04:13:11;;;;;;;10.30;4.68;;;;;;;;;;4973874;28;20469;-65
2023/10/21 04:15:37;;;;;;;6.25;4.45;;;;;;;;;;4974935;28;20019;-63
2023/10/21 04:18:03;;;;;;;9.15;5.13;;;;;;;;;;4974971;28;20029;-64
2023/10/21 04:20:29;;;;;;;6.72;4.47;;;;;;;;;;4974585;28;20054;-63
2023/10/21 04:22:54;;;;;;;7.68;4.93;;;;;;;;;;4974538;28;20027;-63
2023/10/21 04:25:21;;;;;;;7.00;4.15;;;;;;;;;;4974416;28;20086;-64
2023/10/21 04:27:46;;;;;;;11.13;5.28;;;;;;;;;;4974353;28;20109;-65
2023/10/21 04:30:12;;;;;;;7.97;4.95;;;;;;;;;;4960513;28;20063;-64
2023/10/21 04:32:37;;;;;;;9.15;5.03;;;;;;;;;;4955000;28;20122;-65
2023/10/21 04:35:06;;;;;;;8.63;4.78;;;;;;;;;;4973097;28;20042;-65
2023/10/21 04:37:32;;;;;;;6.65;4.18;;;;;;;;;;4974486;28;20420;-65
2023/10/21 04:39:57;;;;;;;7.88;4.93;;;;;;;;;;4974426;28;20022;-64
2023/10/21 04:42:23;;;;;;;5.47;3.47;;;;;;;;;;4974332;28;20077;-64
2023/10/21 04:44:48;;;;;;;6.47;3.72;;;;;;;;;;4974238;28;20077;-64
2023/10/21 04:47:15;;;;;;;5.03;3.15;;;;;;;;;;4974238;28;20088;-65
2023/10/21 04:49:44;;;;;;;7.13;3.85;;;;;;;;;;4974164;28;20093;-65
2023/10/21 04:52:14;;;;;;;8.13;4.68;;;;;;;;;;4974160;28;20031;-64
2023/10/21 04:54:41;;;;;;;8.60;4.95;;;;;;;;;;4974139;28;20040;-64
2023/10/21 04:57:06;;;;;;;6.93;4.45;;;;;;;;;;4974328;28;20511;-64
2023/10/21 04:59:33;;;;;;;9.43;5.35;;;;;;;;;;4974495;28;20031;-64
2023/10/21 05:01:58;;;;;;;8.60;5.55;;;;;;;;;;4974215;28;20046;-65
2023/10/21 05:04:23;;;;;;;11.07;6.10;;;;;;;;;;4973856;28;20476;-64
2023/10/21 05:06:49;;;;;;;17.10;8.13;;;;;;;;;;4974124;28;20085;-63
2023/10/21 05:09:16;;;;;;;11.35;5.72;;;;;;;;;;4974172;28;20134;-65
2023/10/21 05:11:41;;;;;;;13.50;8.13;;;;;;;;;;4973918;28;20034;-63
2023/10/21 05:14:07;;;;;;;14.00;7.40;;;;;;;;;;4974045;28;20027;-65
2023/10/21 05:16:32;;;;;;;9.68;5.30;;;;;;;;;;4973976;28;20420;-64
2023/10/21 05:18:57;;;;;;;9.75;6.32;;;;;;;;;;4973604;28;20023;-64
2023/10/21 05:21:23;;;;;;;10.93;5.85;;;;;;;;;;4973904;28;20085;-63
2023/10/21 05:23:48;;;;;;;5.57;3.95;;;;;;;;;;4974545;28;20026;-64
2023/10/21 05:26:14;;;;;;;9.88;6.35;;;;;;;;;;4978018;28;20065;-64
2023/10/21 05:28:40;;;;;;;12.40;7.05;;;;;;;;;;4976131;28;20042;-64
2023/10/21 05:31:06;;;;;;;12.82;5.93;;;;;;;;;;4958384;29;20101;-65
2023/10/21 05:33:32;;;;;;;10.85;6.28;;;;;;;;;;4957930;28;20528;-63
2023/10/21 05:35:59;;;;;;;7.25;3.65;;;;;;;;;;4957062;28;20066;-64
2023/10/21 05:38:24;;;;;;;10.25;5.25;;;;;;;;;;4958245;28;20473;-64
2023/10/21 05:40:50;;;;;;;9.60;6.43;;;;;;;;;;4958214;28;20031;-64
2023/10/21 05:43:16;;;;;;;7.68;5.45;;;;;;;;;;4958013;28;20134;-65
2023/10/21 05:45:43;;;;;;;10.60;5.43;;;;;;;;;;4968612;28;20026;-64
2023/10/21 05:48:09;;;;;;;11.05;5.57;;;;;;;;;;4977134;28;20465;-65
2023/10/21 05:50:38;;;;;;;10.45;6.53;;;;;;;;;;4977498;28;20042;-64
2023/10/21 05:53:03;;;;;;;11.27;6.15;;;;;;;;;;4977464;28;20388;-63
2023/10/21 05:55:29;;;;;;;12.52;7.47;;;;;;;;;;4977258;28;20065;-64
2023/10/21 05:57:55;;;;;;;13.93;7.53;;;;;;;;;;4977412;28;20031;-63
2023/10/21 06:00:21;;;;;;;14.20;7.10;;;;;;;;;;4977004;28;20027;-65
2023/10/21 06:02:46;;;;;;;11.30;6.85;;;;;;;;;;4977120;28;20484;-65
2023/10/21 06:05:15;;;;;;;7.18;4.38;;;;;;;;;;4976786;28;20484;-64
2023/10/21 06:07:41;;;;;;;12.57;7.53;;;;;;;;;;4977155;28;20090;-64
2023/10/21 06:10:07;;;;;;;13.18;7.78;;;;;;;;;;4977119;28;20349;-64
2023/10/21 06:12:33;;;;;;;10.98;7.18;;;;;;;;;;4977061;28;20038;-64
2023/10/21 06:14:59;;;;;;;9.48;6.20;;;;;;;;;;4977050;28;20481;-63
2023/10/21 06:17:25;;;;;;;11.00;6.53;;;;;;;;;;4976931;28;20384;-64
2023/10/21 06:19:51;;;;;;;13.60;8.73;;;;;;;;;;4977006;28;20023;-63
2023/10/21 06:22:17;;;;;;;14.43;8.63;;;;;;;;;;4977001;28;20030;-62
2023/10/21 06:24:43;;;;;;;16.02;9.15;;;;;;;;;;4976433;28;20038;-65
2023/10/21 06:27:09;;;;;;;15.20;8.13;;;;;;;;;;4976795;28;20023;-65
2023/10/21 06:29:34;;;;;;;16.15;9.23;;;;;;;;;;4967584;28;20071;-65
2023/10/21 06:32:00;;;;;;;14.65;8.32;;;;;;;;;;4956968;28;20039;-64
2023/10/21 06:34:26;;;;;;;16.13;7.82;;;;;;;;;;4957206;29;20035;-65
2023/10/21 06:36:51;;;;;;;12.80;7.35;;;;;;;;;;4956378;28;20085;-65
2023/10/21 06:39:18;;;;;;;17.65;8.70;;;;;;;;;;4967085;28;20034;-64
2023/10/21 06:41:44;;;;;;;19.05;8.50;;;;;;;;;;4976677;28;20030;-65
2023/10/21 06:44:09;;;;;;;13.95;6.82;;;;;;;;;;4976444;28;20039;-65
2023/10/21 06:46:35;;;;;;;15.45;8.57;;;;;;;;;;4976343;28;20022;-63
2023/10/21 06:49:00;;;;;;;12.10;7.38;;;;;;;;;;4976291;28;20029;-64
2023/10/21 06:51:26;;;;;;;16.48;8.05;;;;;;;;;;4976368;28;20023;-64
2023/10/21 06:53:52;;;;;;;15.23;8.68;;;;;;;;;;4976097;28;20027;-65
2023/10/21 06:56:17;;;;;;;14.82;8.30;;;;;;;;;;4976322;28;20074;-64
2023/10/21 06:58:47;;;;;;;16.52;8.48;;;;;;;;;;4976337;28;20027;-64
2023/10/21 07:01:12;;;;;;;15.73;7.23;;;;;;;;;;4975968;28;20054;-64
2023/10/21 07:03:38;;;;;;;18.38;8.70;;;;;;;;;;4975999;28;20523;-64
2023/10/21 07:06:03;;;;;;;13.23;6.70;;;;;;;;;;4976133;28;20022;-64
2023/10/21 07:08:29;;;;;;;19.13;9.18;;;;;;;;;;4975955;28;20034;-64
2023/10/21 07:10:54;;;;;;;19.10;9.75;;;;;;;;;;4975687;28;20030;-64
2023/10/21 07:13:20;;;;;;;16.27;8.55;;;;;;;;;;4975952;28;20023;-65
2023/10/21 07:15:47;;;;;;;15.20;8.48;;;;;;;;;;4975600;28;20077;-63
2023/10/21 07:18:12;;;;;;;7.75;4.53;;;;;;;;;;4975805;28;20034;-64
2023/10/21 07:20:38;;;;;;;13.73;6.07;;;;;;;;;;4975781;28;20031;-64
2023/10/21 07:23:04;;;;;;;17.75;8.40;;;;;;;;;;4975750;28;20027;-63
2023/10/21 07:25:30;;;;;;;19.55;8.65;;;;;;;;;;4975711;28;20093;-64
2023/10/21 07:27:56;;;;;;;16.42;8.30;;;;;;;;;;4975696;28;20034;-65
2023/10/21 07:30:27;;;;;;;18.23;8.43;;;;;;;;;;4974485;28;20031;-64
2023/10/21 07:32:52;;;;;;;16.48;7.90;;;;;;;;;;4964899;28;20055;-62
2023/10/21 07:35:18;;;;;;;14.82;6.75;;;;;;;;;;4969751;28;20057;-63
2023/10/21 07:37:44;;;;;;;18.08;9.25;;;;;;;;;;4975564;28;20050;-64
2023/10/21 07:40:10;;;;;;;20.08;9.32;;;;;;;;;;4975559;28;20027;-65
2023/10/21 07:42:36;;;;;;;18.02;9.23;;;;;;;;;;4994557;28;20054;-63
2023/10/21 07:45:04;;;;;;;17.15;8.43;;;;;;;;;;4987125;28;20609;-64
2023/10/21 07:47:30;;;;;;;14.45;6.32;;;;;;;;;;4956549;28;20058;-64
2023/10/21 07:49:55;;;;;;;15.82;8.35;;;;;;;;;;4956025;28;20074;-64
2023/10/21 07:52:21;;;;;;;19.52;8.85;;;;;;;;;;4955851;28;20516;-63
2023/10/21 07:54:47;;;;;;;17.20;7.07;;;;;;;;;;4955838;28;20503;-63
2023/10/21 07:57:13;;;;;;;9.80;5.90;;;;;;;;;;4963022;28;20118;-64
2023/10/21 07:59:38;;;;;;;16.48;6.20;;;;;;;;;;4974725;28;20420;-64
2023/10/21 08:02:04;;;;;;;10.85;6.95;;;;;;;;;;4974619;28;20035;-64
2023/10/21 08:04:31;;;;;;;19.75;9.35;;;;;;;;;;4974646;28;20030;-64
2023/10/21 08:06:57;;;;;;;21.45;9.63;;;;;;;;;;4974813;28;20042;-64
2023/10/21 08:09:23;;;;;;;15.07;7.88;;;;;;;;;;4974874;28;20031;-63
2023/10/21 08:11:48;;;;;;;20.40;9.07;;;;;;;;;;4974808;28;20542;-65
2023/10/21 08:14:14;;;;;;;15.48;6.93;;;;;;;;;;4974534;28;20488;-64
2023/10/21 08:16:40;;;;;;;11.68;6.45;;;;;;;;;;4974819;28;20369;-63
2023/10/21 08:19:06;;;;;;;18.42;9.40;;;;;;;;;;4974606;28;20050;-65
2023/10/21 08:21:35;;;;;;;21.10;10.75;;;;;;;;;;4974461;28;20472;-65
2023/10/21 08:24:02;;;;;;;18.80;10.73;;;;;;;;;;4974185;28;20038;-65
2023/10/21 08:26:32;;;;;;;16.77;9.20;;;;;;;;;;4974289;28;20035;-64
2023/10/21 08:28:58;;;;;;;18.50;9.60;;;;;;;;;;4970209;28;20023;-65
2023/10/21 08:31:24;;;;;;;15.63;8.45;;;;;;;;;;4981764;28;20383;-65
2023/10/21 08:33:53;;;;;;;18.60;9.20;;;;;;;;;;4984618;28;20053;-64
2023/10/21 08:36:20;;;;;;;23.13;10.50;;;;;;;;;;4974262;28;20030;-64
2023/10/21 08:38:47;;;;;;;20.50;8.98;;;;;;;;;;4974298;28;20102;-64
2023/10/21 08:41:13;;;;;;;19.13;8.88;;;;;;;;;;4973732;28;20026;-63
2023/10/21 08:43:50;;;;;;;19.80;9.50;;;;;;;;;;4973918;28;20035;-63
2023/10/21 08:46:17;;;;;;;9.75;5.25;;;;;;;;;;4974038;28;20105;-63
2023/10/21 08:48:47;;;;;;;23.65;10.95;;;;;;;;;;4973941;28;20039;-62
2023/10/21 08:51:18;;;;;;;23.77;10.75;;;;;;;;;;4974146;28;20077;-62
2023/10/21 08:53:46;;;;;;;17.00;8.85;;;;;;;;;;4974026;28;20035;-63
2023/10/21 08:56:12;;;;;;;23.30;10.32;;;;;;;;;;4973762;28;20107;-63
2023/10/21 08:58:38;;;;;;;20.60;10.45;;;;;;;;;;4973373;28;20095;-63
2023/10/21 09:01:05;;;;;;;22.33;10.38;;;;;;;;;;4973963;28;20113;-64
2023/10/21 09:03:32;;;;;;;17.60;8.93;;;;;;;;;;4973706;28;20037;-64
2023/10/21 09:06:04;;;;;;;23.30;11.63;;;;;;;;;;4974021;28;20046;-63
2023/10/21 09:08:34;;;;;;;18.40;9.77;;;;;;;;;;4973625;28;20033;-63
2023/10/21 09:11:00;;;;;;;19.45;8.50;;;;;;;;;;4973749;28;20035;-63
2023/10/21 09:13:33;;;;;;;15.32;7.70;;;;;;;;;;4973995;28;20053;-64
2023/10/21 09:15:58;;;;;;;17.35;8.75;;;;;;;;;;4973985;28;20384;-64
2023/10/21 09:18:24;;;;;;;16.00;8.35;;;;;;;;;;4973847;28;20031;-63
2023/10/21 09:20:49;;;;;;;14.10;7.10;;;;;;;;;;4973889;28;20046;-64
2023/10/21 09:23:17;;;;;;;13.80;6.95;;;;;;;;;;4973376;28;20511;-63
2023/10/21 09:25:49;;;;;;;19.88;10.88;;;;;;;;;;4973410;28;20038;-63
2023/10/21 09:28:21;;;;;;;23.15;12.35;;;;;;;;;;4973741;28;20082;-64
2023/10/21 09:30:57;;;;;;;22.05;12.18;;;;;;;;;;4955010;28;20098;-63
2023/10/21 09:33:24;;;;;;;21.67;10.95;;;;;;;;;;4959197;28;20058;-64
2023/10/21 09:36:07;;;;;;;21.40;11.02;;;;;;;;;;4973808;28;20035;-64
2023/10/21 09:38:39;;;;;;;30.20;14.15;;;;;;;;;;4973709;28;20514;-64
2023/10/21 09:41:10;;;;;;;20.73;11.43;;;;;;;;;;4972094;28;20388;-65
2023/10/21 09:43:41;;;;;;;20.30;11.45;;;;;;;;;;4973301;28;20037;-64
2023/10/21 09:46:10;;;;;;;7.47;5.28;;;;;;;;;;4973794;28;20034;-65
2023/10/21 09:48:41;;;;;;;13.63;8.35;;;;;;;;;;4973345;28;20034;-65
2023/10/21 09:51:11;;;;;;;18.27;10.55;;;;;;;;;;4972394;28;20551;-64
2023/10/21 09:53:45;;;;;;;18.35;9.73;;;;;;;;;;4973338;28;20030;-64
2023/10/21 09:56:14;;;;;;;19.38;10.50;;;;;;;;;;4973690;28;20027;-64
2023/10/21 09:58:41;;;;;;;17.48;8.95;;;;;;;;;;4973570;28;20039;-65
2023/10/21 10:01:08;;;;;;;16.70;9.32;;;;;;;;;;4973376;28;20026;-65
2023/10/21 10:03:35;;;;;;;19.20;10.35;;;;;;;;;;4973099;28;20027;-64
2023/10/21 10:06:04;;;;;;;17.52;11.25;;;;;;;;;;4973484;28;20507;-64
2023/10/21 10:08:34;;;;;;;21.73;10.98;;;;;;;;;;4973049;28;20396;-65
2023/10/21 10:11:11;;;;;;;19.95;11.32;;;;;;;;;;4975960;28;20027;-63
2023/10/21 10:13:42;;;;;;;20.20;11.80;;;;;;;;;;4976796;28;20037;-64
2023/10/21 10:16:22;;;;;;;16.45;10.10;;;;;;;;;;4977121;28;20035;-64
2023/10/21 10:18:50;;;;;;;19.08;9.45;;;;;;;;;;4977017;28;20042;-65
2023/10/21 10:21:16;;;;;;;18.95;11.38;;;;;;;;;;4976772;28;20087;-64
2023/10/21 10:23:51;;;;;;;19.05;10.50;;;;;;;;;;4975991;28;20085;-62
2023/10/21 10:26:36;;;;;;;23.40;11.75;;;;;;;;;;4976892;28;20023;-64
2023/10/21 10:29:18;;;;;;;16.73;9.27;;;;;;;;;;4972170;28;20469;-63
2023/10/21 10:31:45;;;;;;;20.48;11.15;;;;;;;;;;4957186;28;20062;-62
2023/10/21 10:34:10;;;;;;;20.42;11.60;;;;;;;;;;4968520;28;20472;-65
2023/10/21 10:36:36;;;;;;;19.92;11.88;;;;;;;;;;4976589;28;20054;-68
2023/10/21 10:39:04;;;;;;;18.90;11.80;;;;;;;;;;4976335;28;20023;-62
2023/10/21 10:41:29;;;;;;;19.30;11.95;;;;;;;;;;4976487;28;20369;-63
2023/10/21 10:43:56;;;;;;;23.08;12.82;;;;;;;;;;4976233;28;20049;-64
2023/10/21 10:46:25;;;;;;;20.08;12.38;;;;;;;;;;4976348;28;20421;-63
2023/10/21 10:48:51;;;;;;;21.83;12.98;;;;;;;;;;4976394;28;20030;-63
2023/10/21 10:51:19;;;;;;;18.20;12.23;;;;;;;;;;4976278;28;20031;-64
2023/10/21 10:53:55;;;;;;;20.75;10.77;;;;;;;;;;4975887;28;20031;-64
2023/10/21 10:56:20;;;;;;;23.77;13.60;;;;;;;;;;4975943;28;20042;-64
2023/10/21 10:58:46;;;;;;;20.23;12.48;;;;;;;;;;4976307;28;20022;-64
2023/10/21 11:01:28;;;;;;;22.23;12.93;;;;;;;;;;4976262;28;20035;-64
2023/10/21 11:03:58;;;;;;;23.17;12.20;;;;;;;;;;4975864;28;20035;-64
2023/10/21 11:06:28;;;;;;;21.13;11.48;;;;;;;;;;4975771;28;20165;-64
2023/10/21 11:08:54;;;;;;;15.00;8.43;;;;;;;;;;4976158;28;20127;-63
2023/10/21 11:11:19;;;;;;;21.23;11.82;;;;;;;;;;4976149;28;20023;-64
2023/10/21 11:13:46;;;;;;;19.45;10.48;;;;;;;;;;4975963;28;20034;-64
2023/10/21 11:16:11;;;;;;;19.95;12.48;;;;;;;;;;4975954;28;20031;-63
2023/10/21 11:18:38;;;;;;;24.70;13.30;;;;;;;;;;4975702;28;20038;-61
2023/10/21 11:21:04;;;;;;;22.50;13.05;;;;;;;;;;4975218;28;20034;-64
2023/10/21 11:23:30;;;;;;;23.73;14.23;;;;;;;;;;4975315;28;20154;-63
2023/10/21 11:25:58;;;;;;;23.95;12.98;;;;;;;;;;4975539;28;20428;-65
2023/10/21 11:28:25;;;;;;;23.20;12.27;;;;;;;;;;4975454;28;20075;-65
2023/10/21 11:30:51;;;;;;;22.77;13.50;;;;;;;;;;4956592;28;20046;-65
2023/10/21 11:33:17;;;;;;;19.95;12.93;;;;;;;;;;4960109;28;20372;-63
2023/10/21 11:35:45;;;;;;;23.65;13.25;;;;;;;;;;4975065;28;20030;-63
2023/10/21 11:38:16;;;;;;;20.23;11.77;;;;;;;;;;4975416;28;20081;-64
2023/10/21 11:40:43;;;;;;;18.10;9.88;;;;;;;;;;4975621;28;20225;-64
2023/10/21 11:43:13;;;;;;;13.80;9.13;;;;;;;;;;4975313;28;20064;-62
2023/10/21 11:45:39;;;;;;;19.42;10.90;;;;;;;;;;4975025;28;20485;-63
2023/10/21 11:48:09;;;;;;;17.10;9.38;;;;;;;;;;4975079;28;20034;-61
2023/10/21 11:50:37;;;;;;;20.05;12.30;;;;;;;;;;4974780;28;20027;-62
2023/10/21 11:53:03;;;;;;;23.33;11.35;;;;;;;;;;4974972;28;20102;-62
2023/10/21 12:18:14;;;;;;;17.83;9.43;;;;;;;;;;4971731;28;20027;-64
2023/10/21 12:28:32;;;;;;;19.15;12.40;;;;;;;;;;4972594;28;20401;-64
2023/10/21 12:36:32;;;;;;;19.45;12.25;;;;;;;;;;4972098;28;20023;-64
2023/10/21 12:41:51;;;;;;;22.08;14.02;;;;;;;;;;4972213;28;20150;-65
2023/10/21 12:44:23;;;;;;;19.35;11.80;;;;;;;;;;4971905;28;20373;-63
2023/10/21 12:46:55;;;;;;;16.23;10.93;;;;;;;;;;4974276;28;20038;-63
2023/10/21 12:49:21;;;;;;;18.92;11.73;;;;;;;;;;4974202;28;20030;-63
2023/10/21 12:51:47;;;;;;;20.60;11.15;;;;;;;;;;4974278;28;20070;-63
2023/10/21 12:54:12;;;;;;;17.75;11.63;;;;;;;;;;4974349;28;20547;-63
2023/10/21 12:56:38;;;;;;;18.08;11.52;;;;;;;;;;4974276;28;20124;-63
2023/10/21 12:59:06;;;;;;;16.65;10.90;;;;;;;;;;4974327;28;20022;-63
2023/10/21 13:01:35;;;;;;;18.23;11.52;;;;;;;;;;4974261;28;20378;-63
2023/10/21 13:04:01;;;;;;;17.60;10.30;;;;;;;;;;4974019;28;20105;-63
2023/10/21 13:06:27;;;;;;;18.52;11.45;;;;;;;;;;4974279;28;20058;-63
2023/10/21 13:08:53;;;;;;;15.15;8.88;;;;;;;;;;4974257;28;20048;-63
2023/10/21 13:11:19;;;;;;;19.05;11.85;;;;;;;;;;4973967;28;20039;-63
2023/10/21 13:13:45;;;;;;;21.83;12.00;;;;;;;;;;4973907;28;20110;-62
2023/10/21 13:16:10;;;;;;;22.75;12.52;;;;;;;;;;4974223;28;20054;-63
2023/10/21 13:18:36;;;;;;;19.35;12.45;;;;;;;;;;4973944;28;20050;-62
2023/10/21 13:21:04;;;;;;;18.73;11.43;;;;;;;;;;4974115;28;20027;-63
2023/10/21 13:23:30;;;;;;;20.33;12.63;;;;;;;;;;4974157;28;20464;-63
2023/10/21 13:25:55;;;;;;;19.00;11.52;;;;;;;;;;4959878;28;20031;-64
2023/10/21 13:28:20;;;;;;;18.45;12.65;;;;;;;;;;4954641;28;20027;-64
2023/10/21 13:30:48;;;;;;;19.20;12.27;;;;;;;;;;4972972;28;20393;-64
2023/10/21 13:33:14;;;;;;;19.90;11.18;;;;;;;;;;4973100;28;20194;-63
2023/10/21 13:35:40;;;;;;;21.17;12.68;;;;;;;;;;4974200;28;20031;-63
2023/10/21 13:38:08;;;;;;;19.98;13.05;;;;;;;;;;4974141;28;20042;-63
2023/10/21 13:40:33;;;;;;;16.42;11.40;;;;;;;;;;4973568;28;20042;-64
2023/10/21 13:42:59;;;;;;;19.88;13.40;;;;;;;;;;4973985;28;20023;-64
2023/10/21 13:45:26;;;;;;;17.88;11.43;;;;;;;;;;4975584;28;20105;-63
2023/10/21 13:47:51;;;;;;;22.35;13.35;;;;;;;;;;4977537;28;20026;-63
2023/10/21 13:50:18;;;;;;;23.48;12.90;;;;;;;;;;4977786;28;20037;-64
2023/10/21 13:52:47;;;;;;;21.17;12.15;;;;;;;;;;4977476;28;20408;-63
2023/10/21 13:55:14;;;;;;;19.10;11.55;;;;;;;;;;4977530;28;20082;-64
2023/10/21 13:57:42;;;;;;;22.92;13.00;;;;;;;;;;4977357;28;20030;-64
2023/10/21 14:00:25;;;;;;;23.42;12.93;;;;;;;;;;4977347;28;20023;-63
2023/10/21 14:02:53;;;;;;;18.15;12.50;;;;;;;;;;4977445;28;20030;-64
2023/10/21 14:05:20;;;;;;;22.40;12.73;;;;;;;;;;4977108;28;20511;-63
2023/10/21 14:07:45;;;;;;;20.90;12.55;;;;;;;;;;4977088;28;20084;-63
2023/10/21 14:10:11;;;;;;;22.50;13.32;;;;;;;;;;4977081;28;20427;-64
2023/10/21 14:12:37;;;;;;;22.10;12.52;;;;;;;;;;4977089;28;20122;-64
2023/10/21 14:15:10;;;;;;;19.08;12.80;;;;;;;;;;4977080;28;20034;-64
2023/10/21 14:17:36;;;;;;;19.20;12.25;;;;;;;;;;4977034;28;20031;-64
2023/10/21 14:20:01;;;;;;;20.02;13.10;;;;;;;;;;4976956;28;20026;-64
2023/10/21 14:22:27;;;;;;;18.67;13.27;;;;;;;;;;4976926;28;20031;-64
2023/10/21 14:24:52;;;;;;;24.38;13.27;;;;;;;;;;4971295;28;20050;-64
2023/10/21 14:27:19;;;;;;;16.55;11.43;;;;;;;;;;4957630;28;20027;-63
2023/10/21 14:29:46;;;;;;;20.45;13.60;;;;;;;;;;4967401;28;20358;-64
2023/10/21 14:32:11;;;;;;;22.48;12.68;;;;;;;;;;4976766;28;20151;-64
2023/10/21 14:34:38;;;;;;;20.38;12.88;;;;;;;;;;4976553;28;20544;-63
2023/10/21 14:37:06;;;;;;;23.08;12.68;;;;;;;;;;4976795;28;20031;-64
2023/10/21 14:39:33;;;;;;;20.20;12.77;;;;;;;;;;4976851;28;20055;-64
2023/10/21 14:41:59;;;;;;;19.00;12.20;;;;;;;;;;4973432;28;20069;-64
2023/10/21 14:44:24;;;;;;;19.35;12.52;;;;;;;;;;4971683;28;20062;-64
2023/10/21 14:46:52;;;;;;;21.05;12.80;;;;;;;;;;4971928;28;20484;-64
2023/10/21 14:49:17;;;;;;;24.42;12.73;;;;;;;;;;4972153;28;20105;-64
2023/10/21 14:51:43;;;;;;;19.77;11.88;;;;;;;;;;4970708;28;20105;-64
2023/10/21 14:54:09;;;;;;;16.30;10.23;;;;;;;;;;4969916;28;20123;-64
2023/10/21 14:56:35;;;;;;;16.65;11.15;;;;;;;;;;4975312;28;20098;-63
2023/10/21 14:59:00;;;;;;;12.93;9.05;;;;;;;;;;4976049;28;20077;-61
2023/10/21 15:01:26;;;;;;;18.40;10.50;;;;;;;;;;4976163;28;20029;-61
2023/10/21 15:03:51;;;;;;;14.57;9.63;;;;;;;;;;4976075;28;20031;-63
2023/10/21 15:06:17;;;;;;;14.38;9.73;;;;;;;;;;4975926;28;20062;-62